Chiang Mai, Thailand

5:57 AM ICT on October 21, 2014 (GMT +0700)
ThaiWx Station | Change Station
CLOSE
Current Station
Personal Weather Station
Location: Chiang Mai, Pa Daet
Elevation: 1007 ft
Nearby Weather Stations

Elev 1007 ft 18.77 °N, 98.97 °E | Updated 2 minutes ago

Mostly Cloudy
Mostly Cloudy
77.7 °F
Feels Like 80 °F
N
0.0
Wind Variable Wind from ESE
Gusts 0.0 mph

Today
High -- | Low -- °F
--% Chance of Precip.
Yesterday
High -- | Low -- °F
Precip. -- in
6:19 AM 5:57 PM
Waning Crescent, 8% visible
Pressure 30.01 in
Visibility 5.0 miles
Clouds Mostly Cloudy 4000 ft
Heat Index 80 °F
Dew Point 72 °F
Humidity 83%
Rainfall 0.00 in
Snow Depth Not available.
UV 0 out of 12
Pollen Not available.
Air Quality Not available.
Flu Activity Not available.
METAR VTCC 202230Z 00000KT 8000 BKN040 24/22 Q1016 A3002 NOSIG

More Conditions Fewer Conditions

Pressure 30.01 in
Visibility 5.0 miles
Clouds Mostly Cloudy 4000 ft
Heat Index 80 °F
Dew Point 72 °F
Humidity 83%
Rainfall 0.00 in
Snow Depth Not available.
UV 0 out of 12
Pollen Not available.
Air Quality Not available.
Flu Activity Not available.
METAR VTCC 202230Z 00000KT 8000 BKN040 24/22 Q1016 A3002 NOSIG

More Conditions Fewer Conditions

10-Day Weather Forecast

Almanac

Astronomy

Oct. 21, 2014 Rise Set
Actual Time 6:19 AM ICT 5:57 PM ICT
Civil Twilight 5:57 AM ICT 6:19 PM ICT
Nautical Twilight 5:31 AM ICT 6:45 PM ICT
Astronomical Twilight 5:06 AM ICT 7:10 PM ICT
Moon 3:56 AM ICT (10/21) 4:16 PM ICT (10/21)
Length of Visible Light 12h 22m
Length of Day
11h 37m
Tomorrow will be 0m 59s shorter.
Waning Crescent, 8% of the Moon is Illuminated
Oct 20
Waning Crescent
Oct 23
New
Oct 30
First Quarter
Nov 6
Full
Nov 14
Last Quarter

Yesterday's Extremes

Country Highs Country Lows

Community

WunderPhotos

Upload Photos

1,763,541 photos uploaded!

WunderBlogs® & News

By Dr. Jeff Masters
Director of Meteorology, Weather Underground
By Kari Strenfel
Meteorologist, Weather Underground
By Christopher C. Burt
Weather Historian, Weather Underground
October 20, 2014
October 20, 2014
October 20, 2014

Nearby

Snow Depth

Not available.

Earthquake Activity

City Distance Mag. Time & Date
No recent earthquake activity has been reported nearby.
Minimum magnitude displayed is 2.5.

Coastal Water Temperatures

Place Temperature
No Stations Reporting

Nearby Weather Stations